createdAt,value
2022-08-29T00:01:45.577Z,10.25
2022-08-29T00:04:19.475Z,11.50
2022-08-29T00:06:52.860Z,7.53
2022-08-29T00:09:27.670Z,8.88
2022-08-29T00:12:01.056Z,8.02
2022-08-29T00:14:34.512Z,8.05
2022-08-29T00:17:07.987Z,9.23
2022-08-29T00:19:41.364Z,8.07
2022-08-29T00:22:14.859Z,10.02
2022-08-29T00:24:49.626Z,8.95
2022-08-29T00:27:23.202Z,10.23
2022-08-29T00:29:56.610Z,9.20
2022-08-29T00:32:35.160Z,10.88
2022-08-29T00:35:11.093Z,12.48
2022-08-29T00:37:44.882Z,12.32
2022-08-29T00:40:23.591Z,17.33
2022-08-29T00:42:56.987Z,7.95
2022-08-29T00:45:31.457Z,10.30
2022-08-29T00:48:09.647Z,11.02
2022-08-29T00:50:46.329Z,11.40
2022-08-29T00:53:24.773Z,13.60
2022-08-29T00:56:00.864Z,13.40
2022-08-29T00:58:39.481Z,9.50
2022-08-29T01:01:13.236Z,14.23
2022-08-29T01:03:46.709Z,8.43
2022-08-29T01:06:22.484Z,15.63
2022-08-29T01:08:58.160Z,10.05
2022-08-29T01:11:51.333Z,11.95
2022-08-29T01:14:27.212Z,9.70
2022-08-29T01:17:01.698Z,8.48
2022-08-29T01:19:47.994Z,10.43
2022-08-29T01:22:35.211Z,9.20
2022-08-29T01:25:12.727Z,9.93
2022-08-29T01:27:49.993Z,10.52
2022-08-29T01:30:23.695Z,8.38
2022-08-29T01:32:58.057Z,11.45
2022-08-29T01:35:31.837Z,10.68
2022-08-29T01:38:07.190Z,10.88
2022-08-29T01:40:42.123Z,10.57
2022-08-29T01:43:15.638Z,10.63
2022-08-29T01:45:49.040Z,15.43
2022-08-29T01:48:23.443Z,10.18
2022-08-29T01:50:58.288Z,8.70
2022-08-29T01:53:31.629Z,13.25
2022-08-29T01:56:13.741Z,10.65
2022-08-29T01:58:49.276Z,13.40
2022-08-29T02:01:25.586Z,8.88
2022-08-29T02:04:01.340Z,8.23
2022-08-29T02:06:36.188Z,13.93
2022-08-29T02:09:10.380Z,13.45
2022-08-29T02:11:46.517Z,10.18
2022-08-29T02:14:20.126Z,8.75
2022-08-29T02:16:53.514Z,11.02
2022-08-29T02:19:28.614Z,11.02
2022-08-29T02:22:02.905Z,8.57
2022-08-29T02:24:36.610Z,12.32
2022-08-29T02:27:12.671Z,10.73
2022-08-29T02:29:46.408Z,11.55
2022-08-29T02:32:19.732Z,9.13
2022-08-29T02:34:53.163Z,9.25
2022-08-29T02:37:26.662Z,9.65
2022-08-29T02:40:00.324Z,9.10
2022-08-29T02:42:35.155Z,9.07
2022-08-29T02:45:09.644Z,9.20
2022-08-29T02:47:45.544Z,10.55
2022-08-29T02:50:19.150Z,7.80
2022-08-29T02:52:53.367Z,8.77
2022-08-29T02:55:27.525Z,11.68
2022-08-29T02:58:02.547Z,9.68
2022-08-29T03:00:37.109Z,11.25
2022-08-29T03:03:11.135Z,10.63
2022-08-29T03:05:44.696Z,9.80
2022-08-29T03:08:18.966Z,10.70
2022-08-29T03:10:52.401Z,10.43
2022-08-29T03:13:27.339Z,9.75
2022-08-29T03:16:02.419Z,14.02
2022-08-29T03:18:35.924Z,10.35
2022-08-29T03:21:16.354Z,11.13
2022-08-29T03:23:50.766Z,13.70
2022-08-29T03:26:25.253Z,15.52
2022-08-29T03:28:59.988Z,9.93
2022-08-29T03:31:33.673Z,10.05
2022-08-29T03:34:07.184Z,12.52
2022-08-29T03:36:40.672Z,11.18
2022-08-29T03:39:14.056Z,12.02
2022-08-29T03:41:47.660Z,11.85
2022-08-29T03:44:22.631Z,12.00
2022-08-29T03:46:56.746Z,9.73
2022-08-29T03:49:30.103Z,14.45
2022-08-29T03:52:05.137Z,13.75
2022-08-29T03:54:38.756Z,11.75
2022-08-29T03:57:12.323Z,9.82
2022-08-29T03:59:48.291Z,11.07
2022-08-29T04:02:27.657Z,13.90
2022-08-29T04:05:10.094Z,12.52
2022-08-29T04:07:46.929Z,12.13
2022-08-29T04:10:24.247Z,23.38
2022-08-29T04:12:59.214Z,13.73
2022-08-29T04:15:34.108Z,10.30
2022-08-29T04:18:09.354Z,10.88
2022-08-29T04:20:45.858Z,12.20
2022-08-29T04:23:19.271Z,14.27
2022-08-29T04:26:02.977Z,11.27
2022-08-29T04:28:46.707Z,10.80
2022-08-29T04:31:22.235Z,12.27
2022-08-29T04:33:56.804Z,12.05
2022-08-29T04:36:30.595Z,8.85
2022-08-29T04:39:05.023Z,12.18
2022-08-29T04:41:39.808Z,12.27
2022-08-29T04:44:14.071Z,14.18
2022-08-29T04:46:48.945Z,11.55
2022-08-29T04:49:22.375Z,8.70
2022-08-29T04:51:55.757Z,10.63
2022-08-29T04:54:29.451Z,10.20
2022-08-29T04:57:03.655Z,12.63
2022-08-29T04:59:38.623Z,9.13
2022-08-29T05:02:13.645Z,10.45
2022-08-29T05:04:48.344Z,11.70
2022-08-29T05:07:22.506Z,14.75
2022-08-29T05:09:58.819Z,9.13
2022-08-29T05:12:33.774Z,10.75
2022-08-29T05:15:08.494Z,13.32
2022-08-29T05:17:43.590Z,12.48
2022-08-29T05:20:17.078Z,8.43
2022-08-29T05:22:50.485Z,9.70
2022-08-29T05:25:24.307Z,11.93
2022-08-29T05:27:57.872Z,13.00
2022-08-29T05:30:34.492Z,11.43
2022-08-29T05:33:10.154Z,11.48
2022-08-29T05:35:43.808Z,14.65
2022-08-29T05:38:17.612Z,10.68
2022-08-29T05:40:51.080Z,8.05
2022-08-29T05:43:24.899Z,10.75
2022-08-29T05:46:03.721Z,8.13
2022-08-29T05:48:42.373Z,9.10
2022-08-29T05:51:20.543Z,9.00
2022-08-29T05:53:53.979Z,7.03
2022-08-29T05:56:30.416Z,9.13
2022-08-29T05:59:03.980Z,8.55
2022-08-29T06:01:37.385Z,10.15
2022-08-29T06:04:12.115Z,6.40
2022-08-29T06:06:45.617Z,7.88
2022-08-29T06:09:19.022Z,6.07
2022-08-29T06:11:54.216Z,7.65
2022-08-29T06:14:28.952Z,7.68
2022-08-29T06:17:02.702Z,7.05
2022-08-29T06:19:39.582Z,10.38
2022-08-29T06:22:13.006Z,7.43
2022-08-29T06:24:46.513Z,6.25
2022-08-29T06:27:20.774Z,6.38
2022-08-29T06:29:54.220Z,5.05
2022-08-29T06:32:27.591Z,7.05
2022-08-29T06:35:02.545Z,4.90
2022-08-29T06:37:36.320Z,6.63
2022-08-29T06:40:11.120Z,5.72
2022-08-29T06:42:44.585Z,7.07
2022-08-29T06:45:18.428Z,8.10
2022-08-29T06:47:51.798Z,5.82
2022-08-29T06:50:26.561Z,5.05
2022-08-29T06:53:26.052Z,10.25
2022-08-29T06:55:53.343Z,5.32
2022-08-29T06:58:26.785Z,6.72
2022-08-29T07:01:00.534Z,6.95
2022-08-29T07:03:34.017Z,5.50
2022-08-29T07:06:09.446Z,7.53
2022-08-29T07:08:55.345Z,6.82
2022-08-29T07:11:31.823Z,5.47
2022-08-29T07:14:06.203Z,5.32
2022-08-29T07:16:40.274Z,7.03
2022-08-29T07:19:13.648Z,3.97
2022-08-29T07:21:49.530Z,7.78
2022-08-29T07:24:24.850Z,5.25
2022-08-29T07:26:58.479Z,7.55
2022-08-29T07:29:31.964Z,5.25
2022-08-29T07:32:05.634Z,8.68
2022-08-29T07:34:39.283Z,5.55
2022-08-29T07:37:14.191Z,5.93
2022-08-29T07:39:47.881Z,6.57
2022-08-29T07:42:21.337Z,5.03
2022-08-29T07:44:54.873Z,7.90
2022-08-29T07:47:29.011Z,5.03
2022-08-29T07:50:02.696Z,5.32
2022-08-29T07:52:37.877Z,4.93
2022-08-29T07:55:12.083Z,4.90
2022-08-29T07:57:46.618Z,4.70
2022-08-29T08:00:20.703Z,6.15
2022-08-29T08:02:54.503Z,5.80
2022-08-29T08:05:28.214Z,4.82
2022-08-29T08:08:08.684Z,4.88
2022-08-29T08:10:42.619Z,3.85
2022-08-29T08:13:16.313Z,4.85
2022-08-29T08:15:49.951Z,5.75
2022-08-29T08:18:23.479Z,5.45
2022-08-29T08:20:57.023Z,5.60
2022-08-29T08:23:32.410Z,7.57
2022-08-29T08:26:06.289Z,6.60
2022-08-29T08:28:41.719Z,5.45
2022-08-29T08:31:16.792Z,5.30
2022-08-29T08:33:50.266Z,6.43
2022-08-29T08:36:26.068Z,7.18
2022-08-29T08:39:01.750Z,4.38
2022-08-29T08:41:52.913Z,5.95
2022-08-29T08:44:50.756Z,6.18
2022-08-29T08:47:28.596Z,8.35
2022-08-29T08:50:05.960Z,5.40
2022-08-29T08:52:43.518Z,5.85
2022-08-29T08:55:28.652Z,4.03
2022-08-29T08:58:09.986Z,5.28
2022-08-29T09:00:51.689Z,3.42
2022-08-29T09:03:51.895Z,3.60
2022-08-29T09:06:37.520Z,2.13
2022-08-29T09:09:21.614Z,3.22
2022-08-29T09:12:12.286Z,2.95
2022-08-29T09:14:56.141Z,3.15
2022-08-29T09:17:37.136Z,3.20
2022-08-29T09:20:14.392Z,1.80
2022-08-29T09:23:04.574Z,1.83
2022-08-29T09:25:38.202Z,1.50
2022-08-29T09:28:13.049Z,2.63
2022-08-29T09:31:18.168Z,2.35
2022-08-29T09:33:54.675Z,1.70
2022-08-29T09:36:41.012Z,2.30
2022-08-29T09:39:19.050Z,3.15
2022-08-29T09:41:54.593Z,1.92
2022-08-29T09:44:32.221Z,4.35
2022-08-29T09:47:09.664Z,3.60
2022-08-29T09:50:01.544Z,2.58
2022-08-29T09:52:35.888Z,3.55
2022-08-29T09:55:25.975Z,6.43
2022-08-29T09:58:05.126Z,3.35
2022-08-29T10:00:44.027Z,3.38
2022-08-29T10:03:24.679Z,5.82
2022-08-29T10:06:08.898Z,4.05
2022-08-29T10:08:44.481Z,3.85
2022-08-29T10:11:26.343Z,4.60
2022-08-29T10:14:03.545Z,4.63
2022-08-29T10:16:46.684Z,7.03
2022-08-29T10:19:27.072Z,6.18
2022-08-29T10:22:16.089Z,5.82
2022-08-29T10:25:00.542Z,6.07
2022-08-29T10:27:43.207Z,9.00
2022-08-29T10:33:20.034Z,5.05
2022-08-29T10:35:59.060Z,6.30
2022-08-29T10:38:46.353Z,7.50
2022-08-29T10:41:35.035Z,7.45
2022-08-29T10:44:20.524Z,8.02
2022-08-29T10:47:03.344Z,4.80
2022-08-29T10:49:51.127Z,7.53
2022-08-29T10:52:31.745Z,10.13
2022-08-29T10:55:13.269Z,17.00
2022-08-29T10:58:03.460Z,6.20
2022-08-29T11:00:43.527Z,10.13
2022-08-29T11:03:26.781Z,9.50
2022-08-29T11:06:06.068Z,7.38
2022-08-29T11:08:45.639Z,7.93
2022-08-29T11:11:22.536Z,8.27
2022-08-29T11:14:04.945Z,6.95
2022-08-29T11:16:44.455Z,6.47
2022-08-29T11:19:23.807Z,11.00
2022-08-29T11:22:05.558Z,6.65
2022-08-29T11:24:46.428Z,8.70
2022-08-29T11:27:31.569Z,8.30
2022-08-29T11:30:08.682Z,8.90
2022-08-29T11:32:51.385Z,9.75
2022-08-29T11:38:25.457Z,10.77
2022-08-29T11:41:32.105Z,11.07
2022-08-29T11:44:16.032Z,10.18
2022-08-29T11:46:56.294Z,10.82
2022-08-29T11:49:38.215Z,8.07
2022-08-29T11:52:22.493Z,10.07
2022-08-29T11:55:27.243Z,8.90
2022-08-29T11:58:29.133Z,12.93
2022-08-29T12:01:04.554Z,8.68
2022-08-29T12:03:47.051Z,8.52
2022-08-29T12:06:30.766Z,7.93
2022-08-29T12:09:17.920Z,10.52
2022-08-29T12:12:13.725Z,10.50
2022-08-29T12:14:48.813Z,9.65
2022-08-29T12:18:01.280Z,8.00
2022-08-29T12:20:41.869Z,8.73
2022-08-29T12:23:25.239Z,8.18
2022-08-29T12:26:22.584Z,10.70
2022-08-29T12:29:00.118Z,6.15
2022-08-29T12:32:22.251Z,6.60
2022-08-29T12:35:21.365Z,8.95
2022-08-29T12:38:09.006Z,8.45
2022-08-29T12:41:05.889Z,7.85
2022-08-29T12:43:42.839Z,9.45
2022-08-29T12:46:24.653Z,7.03
2022-08-29T12:49:09.124Z,9.13
2022-08-29T12:51:44.542Z,5.00
2022-08-29T12:54:32.462Z,7.45
2022-08-29T12:57:09.675Z,7.70
2022-08-29T12:59:46.323Z,5.60
2022-08-29T13:02:29.109Z,8.00
2022-08-29T13:05:03.596Z,7.18
2022-08-29T13:07:38.392Z,7.00
2022-08-29T13:10:19.781Z,8.77
2022-08-29T13:12:56.761Z,8.18
2022-08-29T13:15:32.910Z,7.85
2022-08-29T13:18:07.587Z,8.60
2022-08-29T13:20:48.211Z,7.88
2022-08-29T13:23:29.161Z,8.15
2022-08-29T13:26:06.145Z,9.90
2022-08-29T13:28:43.805Z,6.95
2022-08-29T13:31:30.084Z,7.20
2022-08-29T13:34:22.670Z,8.32
2022-08-29T13:37:02.561Z,12.00
2022-08-29T13:39:41.767Z,8.48
2022-08-29T13:42:29.246Z,7.20
2022-08-29T13:45:22.391Z,7.45
2022-08-29T13:48:13.655Z,9.48
2022-08-29T13:53:26.214Z,8.60
2022-08-29T13:56:02.163Z,7.25
2022-08-29T13:58:35.570Z,7.93
2022-08-29T14:04:20.981Z,5.93
2022-08-29T14:06:56.828Z,7.45
2022-08-29T14:09:33.669Z,7.72
2022-08-29T14:12:09.325Z,7.97
2022-08-29T14:14:42.753Z,5.90
2022-08-29T14:17:18.906Z,4.68
2022-08-29T14:19:52.327Z,7.95
2022-08-29T14:22:25.832Z,7.78
2022-08-29T14:25:01.198Z,11.77
2022-08-29T14:27:36.116Z,9.63
2022-08-29T14:30:11.785Z,6.03
2022-08-29T14:32:45.236Z,6.35
2022-08-29T14:35:26.698Z,6.40
2022-08-29T14:38:02.944Z,5.35
2022-08-29T14:40:36.624Z,7.28
2022-08-29T14:43:13.158Z,7.47
2022-08-29T14:45:46.811Z,6.90
2022-08-29T14:48:20.398Z,6.45
2022-08-29T14:50:53.765Z,8.55
2022-08-29T14:53:27.277Z,7.22
2022-08-29T14:56:01.967Z,6.97
2022-08-29T14:58:36.757Z,5.32
2022-08-29T15:01:10.801Z,8.30
2022-08-29T15:03:44.262Z,6.38
2022-08-29T15:06:17.645Z,9.45
2022-08-29T15:08:51.148Z,6.90
2022-08-29T15:11:24.511Z,18.38
2022-08-29T15:14:04.342Z,7.85
2022-08-29T15:16:38.369Z,7.80
2022-08-29T15:19:53.379Z,7.10
2022-08-29T15:22:06.475Z,8.68
2022-08-29T15:24:40.486Z,6.82
2022-08-29T15:27:14.298Z,7.13
2022-08-29T15:29:49.126Z,8.90
2022-08-29T15:32:22.665Z,6.28
2022-08-29T15:34:56.116Z,11.43
2022-08-29T15:37:29.635Z,7.50
2022-08-29T15:40:03.184Z,7.68
2022-08-29T15:42:38.665Z,7.78
2022-08-29T15:45:13.520Z,6.25
2022-08-29T15:47:46.860Z,7.00
2022-08-29T15:50:20.352Z,9.60
2022-08-29T15:52:53.843Z,9.32
2022-08-29T15:55:32.096Z,9.65
2022-08-29T15:58:05.530Z,9.07
2022-08-29T16:00:40.821Z,8.10
2022-08-29T16:03:14.231Z,6.38
2022-08-29T16:05:50.409Z,6.97
2022-08-29T16:08:23.963Z,4.70
2022-08-29T16:11:04.415Z,9.65
2022-08-29T16:13:37.769Z,8.48
2022-08-29T16:16:13.535Z,7.65
2022-08-29T16:18:46.961Z,11.98
2022-08-29T16:21:21.859Z,7.20
2022-08-29T16:23:55.263Z,7.90
2022-08-29T16:26:28.845Z,8.15
2022-08-29T16:29:02.428Z,8.52
2022-08-29T16:31:37.868Z,9.40
2022-08-29T16:34:11.341Z,7.10
2022-08-29T16:36:44.863Z,7.55
2022-08-29T16:39:18.274Z,8.10
2022-08-29T16:41:51.762Z,9.10
2022-08-29T16:44:26.183Z,8.90
2022-08-29T16:47:02.105Z,5.90
2022-08-29T16:49:35.928Z,7.78
2022-08-29T16:52:09.590Z,7.82
2022-08-29T16:54:43.189Z,7.97
2022-08-29T16:57:16.522Z,7.85
2022-08-29T16:59:49.974Z,12.52
2022-08-29T17:02:24.910Z,13.27
2022-08-29T17:04:58.373Z,8.95
2022-08-29T17:07:33.530Z,7.95
2022-08-29T17:10:06.294Z,10.93
2022-08-29T17:12:38.546Z,14.00
2022-08-29T17:15:10.816Z,8.73
2022-08-29T17:17:46.093Z,11.98
2022-08-29T17:20:20.348Z,14.95
2022-08-29T17:22:54.487Z,10.10
2022-08-29T17:25:27.999Z,9.20
2022-08-29T17:28:27.835Z,8.73
2022-08-29T17:30:57.517Z,9.32
2022-08-29T17:33:33.102Z,7.95
2022-08-29T17:36:08.138Z,12.30
2022-08-29T17:38:42.730Z,10.95
2022-08-29T17:41:21.851Z,10.32
2022-08-29T17:43:55.346Z,11.65
2022-08-29T17:46:29.743Z,14.68
2022-08-29T17:49:10.299Z,10.52
2022-08-29T17:51:43.729Z,12.50
2022-08-29T17:54:27.176Z,12.65
2022-08-29T17:57:01.505Z,11.40
2022-08-29T17:59:36.707Z,9.55
2022-08-29T18:02:10.709Z,10.82
2022-08-29T18:04:45.688Z,14.05
2022-08-29T18:07:19.290Z,11.20
2022-08-29T18:09:52.716Z,13.48
2022-08-29T18:12:26.655Z,22.90
2022-08-29T18:15:00.066Z,12.10
2022-08-29T18:17:33.444Z,14.63
2022-08-29T18:20:11.637Z,17.55
2022-08-29T18:22:45.076Z,15.88
2022-08-29T18:25:22.501Z,18.80
2022-08-29T18:27:56.315Z,13.32
2022-08-29T18:30:55.840Z,17.88
2022-08-29T18:34:04.642Z,14.70
2022-08-29T18:37:09.206Z,13.50
2022-08-29T18:39:42.806Z,13.25
2022-08-29T18:42:36.763Z,14.07
2022-08-29T18:45:11.367Z,19.40
2022-08-29T18:47:44.821Z,13.43
2022-08-29T18:50:36.696Z,13.30
2022-08-29T18:53:14.633Z,12.73
2022-08-29T18:55:52.274Z,11.07
2022-08-29T18:58:29.511Z,13.63
2022-08-29T19:01:11.411Z,13.52
2022-08-29T19:03:45.231Z,11.40
2022-08-29T19:06:19.866Z,13.23
2022-08-29T19:08:55.140Z,13.32
2022-08-29T19:11:29.441Z,10.05
2022-08-29T19:14:02.830Z,10.50
2022-08-29T19:16:37.083Z,11.25
2022-08-29T19:19:13.495Z,13.68
2022-08-29T19:21:46.164Z,12.85
2022-08-29T19:26:54.369Z,12.20
2022-08-29T19:29:28.269Z,18.80
2022-08-29T19:32:01.758Z,13.73
2022-08-29T19:34:35.485Z,16.58
2022-08-29T19:37:10.179Z,14.07
2022-08-29T19:39:45.115Z,15.70
2022-08-29T19:42:19.097Z,16.15
2022-08-29T19:44:52.543Z,12.57
2022-08-29T19:47:29.193Z,13.50
2022-08-29T19:50:03.008Z,16.63
2022-08-29T19:52:36.926Z,10.65
2022-08-29T19:55:15.146Z,13.65
2022-08-29T19:57:51.617Z,13.25
2022-08-29T20:00:26.035Z,19.48
2022-08-29T20:03:03.538Z,12.13
2022-08-29T20:05:36.937Z,15.98
2022-08-29T20:08:10.395Z,17.88
2022-08-29T20:10:49.981Z,17.17
2022-08-29T20:13:23.709Z,16.63
2022-08-29T20:15:57.172Z,16.25
2022-08-29T20:18:31.122Z,12.43
2022-08-29T20:21:04.563Z,16.92
2022-08-29T20:23:37.979Z,15.23
2022-08-29T20:26:16.893Z,17.55
2022-08-29T20:28:51.921Z,14.70
2022-08-29T20:31:25.578Z,11.00
2022-08-29T20:33:59.140Z,16.15
2022-08-29T20:36:50.077Z,16.48
2022-08-29T20:39:23.817Z,16.27
2022-08-29T20:42:00.550Z,17.95
2022-08-29T20:44:37.879Z,15.00
2022-08-29T20:47:13.653Z,13.13
2022-08-29T20:49:49.162Z,15.00
2022-08-29T20:52:24.314Z,14.43
2022-08-29T20:54:57.724Z,15.68
2022-08-29T20:57:32.527Z,17.48
2022-08-29T21:00:06.675Z,15.50
2022-08-29T21:02:57.247Z,23.48
2022-08-29T21:05:42.800Z,18.92
2022-08-29T21:08:18.124Z,17.27
2022-08-29T21:10:56.289Z,14.57
2022-08-29T21:13:31.451Z,16.38
2022-08-29T21:16:05.581Z,16.88
2022-08-29T21:18:39.264Z,15.15
2022-08-29T21:21:15.433Z,15.48
2022-08-29T21:23:49.335Z,17.00
2022-08-29T21:26:22.821Z,15.73
2022-08-29T21:28:57.575Z,16.42
2022-08-29T21:31:31.142Z,16.05
2022-08-29T21:34:07.163Z,19.08
2022-08-29T21:36:41.652Z,13.25
2022-08-29T21:39:19.658Z,14.30
2022-08-29T21:42:02.741Z,14.52
2022-08-29T21:44:38.103Z,13.10
2022-08-29T21:47:15.927Z,15.48
2022-08-29T21:49:51.815Z,11.05
2022-08-29T21:52:25.619Z,12.52
2022-08-29T21:54:59.031Z,14.45
2022-08-29T21:57:49.979Z,17.15
2022-08-29T22:00:27.675Z,14.95
2022-08-29T22:03:02.366Z,14.35
2022-08-29T22:05:38.224Z,14.18
2022-08-29T22:08:14.364Z,17.45
2022-08-29T22:10:48.052Z,14.68
2022-08-29T22:13:21.474Z,18.02
2022-08-29T22:16:13.607Z,13.40
2022-08-29T22:18:47.032Z,21.27
2022-08-29T22:21:21.059Z,17.38
2022-08-29T22:23:54.723Z,15.38
2022-08-29T22:26:28.483Z,18.25
2022-08-29T22:29:02.053Z,16.42
2022-08-29T22:31:37.066Z,15.32
2022-08-29T22:34:10.487Z,12.48
2022-08-29T22:36:44.860Z,14.15
2022-08-29T22:39:18.250Z,16.42
2022-08-29T22:41:51.807Z,18.55
2022-08-29T22:44:59.651Z,17.73
2022-08-29T22:47:20.701Z,18.30
2022-08-29T22:49:54.854Z,16.10
2022-08-29T22:52:28.336Z,19.15
2022-08-29T22:55:01.739Z,16.33
2022-08-29T22:57:35.398Z,14.32
2022-08-29T23:00:11.263Z,15.10
2022-08-29T23:02:46.206Z,19.13
2022-08-29T23:05:20.805Z,22.40
2022-08-29T23:07:54.221Z,21.60
2022-08-29T23:10:27.620Z,17.30
2022-08-29T23:13:01.104Z,18.30
2022-08-29T23:15:34.828Z,16.58
2022-08-29T23:18:10.656Z,21.95
2022-08-29T23:20:46.879Z,19.48
2022-08-29T23:23:20.442Z,17.95
2022-08-29T23:25:55.000Z,17.58
2022-08-29T23:28:28.477Z,17.48
2022-08-29T23:31:02.813Z,15.63
2022-08-29T23:33:37.702Z,14.13
2022-08-29T23:36:11.762Z,18.75
2022-08-29T23:38:45.627Z,24.77
2022-08-29T23:41:19.263Z,16.55
2022-08-29T23:43:53.040Z,22.92
2022-08-29T23:46:26.871Z,23.23
2022-08-29T23:49:01.793Z,28.33
2022-08-29T23:51:35.151Z,19.88
2022-08-29T23:54:08.949Z,26.45
2022-08-29T23:56:42.418Z,18.50
2022-08-29T23:59:35.792Z,19.45
